• Join FlightAware (Why Join?)
  • Login
  • US Flag 
09:14AM EDT


 

Airport Tracker/Info


-or-


 

Live Flight TrackerFlight Track Log ✈ CTL61 ✈ 17-Apr-2013 ✈ KCMH - KBLF

Flight Track Log - Related Links

Times and Time Zones

All times are in EDT time to prevent confusion due to time zone crossing. See the CTL61 flight status page for this flight to view local times or setup timezone preferences in your user account.

Time Position Orientation Groundspeed Altitude Reporting Facility
EDT Latitude Longitude Course Direction KTS MPH feet Rate Location/Type
09:00PM 39.9933 -82.8900 150° Southeast 91 105 1,200  Level Indianapolis Center
09:01PM 39.9636 -82.8678 150° Southeast 108 124 2,500 900 Climbing Indianapolis Center
09:02PM 39.9586 -82.8647 155° Southeast 106 122 2,700 840 Climbing Indianapolis Center
09:02PM 39.9353 -82.8508 155° Southeast 117 135 3,400 840 Climbing Indianapolis Center
09:03PM 39.9300 -82.8467 149° Southeast 109 125 3,600 780 Climbing Indianapolis Center
09:03PM 39.9053 -82.8311 154° Southeast 117 135 4,300 840 Climbing Indianapolis Center
09:04PM 39.9000 -82.8283 158° South 114 131 4,500 480 Climbing Indianapolis Center
09:05PM 39.8669 -82.8106 158° South 129 148 4,900 360 Climbing Indianapolis Center
09:06PM 39.8286 -82.7872 155° Southeast 156 180 5,200 360 Climbing Indianapolis Center
09:06PM 39.8025 -82.7733 158° South 154 177 5,600 600 Climbing Indianapolis Center
09:07PM 39.7833 -82.7636 159° South 146 168 6,000 780 Climbing Indianapolis Center
09:07PM 39.7600 -82.7497 155° Southeast 133 153 6,600 780 Climbing Indianapolis Center
09:08PM 39.7503 -82.7419 148° Southeast 136 157 6,800 360 Climbing Indianapolis Center
09:08PM 39.7258 -82.7269 155° Southeast 132 152 7,000 180 Climbing Indianapolis Center
09:09PM 39.7153 -82.7197 152° Southeast 137 158 7,000  Level Indianapolis Center
09:10PM 39.6750 -82.6939 154° Southeast 154 177 7,000  Level Indianapolis Center
09:11PM 39.6325 -82.6686 155° Southeast 163 188 7,000  Level Indianapolis Center
09:12PM 39.5911 -82.6419 154° Southeast 164 189 7,000  Level Indianapolis Center
09:13PM 39.5503 -82.6131 151° Southeast 165 190 7,000 -60 Level Indianapolis Center
09:14PM 39.5103 -82.5847 151° Southeast 164 189 6,900  Descending Indianapolis Center
09:15PM 39.4672 -82.5625 158° South 164 189 7,000  Climbing Indianapolis Center
09:16PM 39.4258 -82.5342 152° Southeast 166 191 7,000  Level Indianapolis Center
09:17PM 39.3836 -82.5075 154° Southeast 167 192 7,000  Level Indianapolis Center
09:18PM 39.3433 -82.4808 153° Southeast 163 188 7,000  Level Indianapolis Center
09:19PM 39.2994 -82.4533 154° Southeast 162 186 7,000  Level Indianapolis Center
09:20PM 39.2603 -82.4267 152° Southeast 160 184 7,000  Level Indianapolis Center
09:21PM 39.2189 -82.4014 155° Southeast 163 188 7,000  Level Indianapolis Center
09:22PM 39.1786 -82.3756 154° Southeast 162 186 7,000 -60 Level Indianapolis Center
09:23PM 39.1369 -82.3475 152° Southeast 167 192 6,900  Descending Indianapolis Center
09:24PM 39.0953 -82.3217 154° Southeast 167 192 7,000  Climbing Indianapolis Center
09:25PM 39.0522 -82.2961 155° Southeast 168 193 7,000 -60 Level Indianapolis Center
09:26PM 39.0103 -82.2675 152° Southeast 171 197 6,900  Descending Indianapolis Center
09:27PM 38.9672 -82.2408 154° Southeast 172 198 7,000  Climbing Indianapolis Center
09:28PM 38.9253 -82.2139 153° Southeast 169 194 7,000  Level Indianapolis Center
09:29PM 38.8739 -82.1819 154° Southeast 170 196 7,000  Level Indianapolis Center
09:30PM 38.8322 -82.1553 153° Southeast 169 194 7,000  Level Indianapolis Center
09:31PM 38.7892 -82.1269 153° Southeast 173 199 7,000  Level Indianapolis Center
09:32PM 38.7461 -82.1017 155° Southeast 171 197 7,000  Level Indianapolis Center
09:33PM 38.7039 -82.0733 152° Southeast 171 197 7,000  Level Indianapolis Center
09:34PM 38.6617 -82.0478 155° Southeast 169 194 7,000  Level Indianapolis Center
09:35PM 38.6194 -82.0222 155° Southeast 169 194 7,000  Level Indianapolis Center
09:36PM 38.5781 -81.9947 153° Southeast 168 193 7,000  Level Indianapolis Center
09:37PM 38.5369 -81.9703 155° Southeast 165 190 7,000  Level Indianapolis Center
09:38PM 38.4978 -81.9456 154° Southeast 158 182 7,000  Level Indianapolis Center
09:39PM 38.4500 -81.9147 153° Southeast 160 184 7,000  Level Indianapolis Center
09:40PM 38.4094 -81.8906 155° Southeast 161 185 7,000  Level Indianapolis Center
09:41PM 38.3692 -81.8653 154° Southeast 161 185 7,000  Level Indianapolis Center
09:42PM 38.3294 -81.8414 155° Southeast 159 183 7,000  Level Indianapolis Center
09:43PM 38.2906 -81.8153 152° Southeast 158 182 7,000  Level Indianapolis Center
09:44PM 38.2506 -81.7919 155° Southeast 158 182 7,000  Level Indianapolis Center
09:46PM 38.2100 -81.7678 155° Southeast 160 184 7,000  Level Indianapolis Center
09:47PM 38.1714 -81.7408 151° Southeast 161 185 7,000  Level Indianapolis Center
09:48PM 38.1317 -81.7175 155° Southeast 159 183 7,000  Level Indianapolis Center
09:49PM 38.0925 -81.6939 155° Southeast 157 181 7,000  Level Indianapolis Center
09:50PM 38.0447 -81.6650 155° Southeast 156 180 7,000  Level Indianapolis Center
09:51PM 38.0067 -81.6408 153° Southeast 153 176 7,000  Level Indianapolis Center
09:52PM 37.9667 -81.6175 155° Southeast 156 180 7,000  Level Indianapolis Center
09:53PM 37.9281 -81.5956 156° South 153 176 7,000  Level Indianapolis Center
09:54PM 37.8894 -81.5708 153° Southeast 155 178 7,000  Level Indianapolis Center
09:55PM 37.8506 -81.5464 154° Southeast 156 180 7,000  Level Indianapolis Center
09:56PM 37.8111 -81.5203 152° Southeast 157 181 7,000  Level Indianapolis Center
09:57PM 37.7711 -81.4972 156° South 156 180 7,000  Level Indianapolis Center
09:58PM 37.7319 -81.4719 153° Southeast 158 182 7,000  Level Indianapolis Center
09:59PM 37.6933 -81.4486 154° Southeast 158 182 7,000  Level Indianapolis Center
10:00PM 37.6458 -81.4194 154° Southeast 162 186 7,000  Level Indianapolis Center